Time;durP1;ratioP1;P1;durP2;ratioP2;P2;SDS_P1;SDS_P2;PMS_P1;PMS_P2;Temp;Humidity;BMP_temperature;BMP_pressure;BME280_temperature;BME280_humidity;BME280_pressure;Samples;Min_cycle;Max_cycle;Signal;HPM_P1;HPM_P2
2021/10/08 00:01:20;;;;;;;8.30;3.50;;;;;;;5.84;43.82;101021.49;27273;1216;3052787;-71
2021/10/08 00:03:51;;;;;;;11.70;3.80;;;;;;;5.84;43.60;101019.41;27314;1215;3026444;-73
2021/10/08 00:06:20;;;;;;;10.50;3.30;;;;;;;5.81;43.80;101019.96;27271;1214;3048822;-72
2021/10/08 00:08:50;;;;;;;10.80;3.60;;;;;;;5.86;43.60;101024.95;27287;1209;3025888;-73
2021/10/08 00:11:19;;;;;;;11.20;4.00;;;;;;;5.87;43.55;101024.74;27279;1215;3056230;-75
2021/10/08 00:13:48;;;;;;;13.10;4.20;;;;;;;5.88;43.64;101023.35;27255;1209;3025842;-73
2021/10/08 00:16:17;;;;;;;10.20;4.30;;;;;;;5.86;43.44;101023.02;27282;1215;3050625;-73
2021/10/08 00:18:49;;;;;;;11.10;4.30;;;;;;;5.89;43.30;101019.33;27292;1214;3027186;-70
2021/10/08 00:21:18;;;;;;;17.10;4.30;;;;;;;5.90;43.62;101015.32;27251;1214;3026486;-72
2021/10/08 00:23:47;;;;;;;13.70;4.20;;;;;;;5.90;43.32;101015.14;27298;1216;3028120;-72
2021/10/08 00:26:18;;;;;;;12.20;3.80;;;;;;;5.89;43.41;101011.50;27268;1216;3057620;-71
2021/10/08 00:28:47;;;;;;;7.90;3.60;;;;;;;5.89;43.33;101009.93;27270;1215;3025979;-73
2021/10/08 00:31:16;;;;;;;11.00;3.60;;;;;;;5.96;43.16;101013.30;27265;1216;3026008;-74
2021/10/08 00:33:45;;;;;;;8.80;3.60;;;;;;;5.99;42.98;101012.40;27274;1216;3055102;-72
2021/10/08 00:36:14;;;;;;;9.10;3.50;;;;;;;6.02;42.86;101011.82;27257;1214;3026262;-73
2021/10/08 00:38:43;;;;;;;7.20;2.80;;;;;;;6.04;42.99;101009.72;27238;1216;3052259;-72
2021/10/08 00:41:13;;;;;;;8.10;3.20;;;;;;;6.05;42.95;101010.55;27268;1215;3025936;-73
2021/10/08 00:43:42;;;;;;;7.80;3.30;;;;;;;6.19;42.72;101006.15;27279;1215;3051109;-73
2021/10/08 00:46:11;;;;;;;13.10;3.50;;;;;;;6.26;42.59;101001.16;27250;1215;3026383;-72
2021/10/08 00:48:42;;;;;;;10.50;3.50;;;;;;;6.24;42.77;101001.02;27289;1215;3047862;-75
2021/10/08 00:51:11;;;;;;;6.10;3.00;;;;;;;6.27;42.50;100998.17;27279;1214;3025952;-69
2021/10/08 00:53:40;;;;;;;5.70;2.30;;;;;;;6.27;42.84;100992.77;27259;1214;3026244;-73
2021/10/08 00:56:09;;;;;;;8.20;2.80;;;;;;;6.34;42.33;100994.75;27327;1215;3028177;-74
2021/10/08 00:58:39;;;;;;;8.20;3.00;;;;;;;6.43;42.20;100992.83;27280;1214;3052126;-72
2021/10/08 01:01:08;;;;;;;6.70;2.20;;;;;;;6.48;42.07;100989.94;27263;1215;3029367;-73
2021/10/08 01:03:37;;;;;;;10.70;2.40;;;;;;;6.52;42.13;100993.54;27247;1215;3026338;-70
2021/10/08 01:06:06;;;;;;;9.10;2.70;;;;;;;6.53;42.17;100997.69;27308;1215;3050944;-75
2021/10/08 01:08:36;;;;;;;10.40;2.40;;;;;;;6.56;42.08;100993.64;27298;1214;3027166;-72
2021/10/08 01:11:06;;;;;;;11.40;3.00;;;;;;;6.61;41.99;100998.77;27328;1215;3025888;-69
2021/10/08 01:13:37;;;;;;;5.30;2.20;;;;;;;6.67;41.90;100995.52;27315;1214;3026674;-76
2021/10/08 01:16:06;;;;;;;6.20;2.60;;;;;;;6.64;42.02;100998.34;27305;1215;3026326;-75
2021/10/08 01:18:40;;;;;;;13.10;2.60;;;;;;;6.62;42.29;100996.48;27274;1215;3050065;-72
2021/10/08 01:21:08;;;;;;;8.50;2.40;;;;;;;6.65;42.21;100994.66;27265;1216;3028122;-73
2021/10/08 01:23:38;;;;;;;6.40;2.10;;;;;;;6.72;42.20;100995.91;27223;1215;3053988;-70
2021/10/08 01:26:08;;;;;;;9.30;2.30;;;;;;;6.68;42.35;100992.88;27299;1214;3026828;-75
2021/10/08 01:28:39;;;;;;;5.10;1.80;;;;;;;6.66;42.41;100999.70;27301;1215;3026573;-73
2021/10/08 01:31:12;;;;;;;4.70;1.90;;;;;;;6.64;42.38;101003.22;27282;1215;3047897;-75
2021/10/08 01:33:55;;;;;;;5.70;2.40;;;;;;;6.65;42.66;101006.69;27329;1215;3052327;-73
2021/10/08 01:36:24;;;;;;;6.90;2.20;;;;;;;6.66;42.69;101002.84;27278;1214;3025979;-75
2021/10/08 01:38:57;;;;;;;6.90;2.70;;;;;;;6.69;42.38;100997.89;27342;1215;3026271;-71
2021/10/08 01:41:27;;;;;;;5.20;2.10;;;;;;;6.66;42.81;100996.75;27281;1209;3027135;-75
2021/10/08 01:43:56;;;;;;;4.00;1.90;;;;;;;6.71;42.72;100996.81;27243;1209;3026548;-75
2021/10/08 01:46:25;;;;;;;4.90;1.80;;;;;;;6.75;42.58;100999.86;27262;1215;3026088;-72
2021/10/08 01:48:55;;;;;;;9.90;2.00;;;;;;;6.69;42.79;101002.41;27274;1214;3048704;-75
2021/10/08 01:51:26;;;;;;;11.30;2.80;;;;;;;6.69;43.05;101004.69;27268;1216;3025743;-69
2021/10/08 01:53:55;;;;;;;4.90;1.70;;;;;;;6.76;42.62;101005.92;27311;1215;3027287;-72
2021/10/08 01:56:27;;;;;;;7.10;2.00;;;;;;;6.77;42.66;101010.27;27245;1215;3048271;-74
2021/10/08 01:59:01;;;;;;;4.90;1.80;;;;;;;6.79;42.80;101015.80;27265;1214;3052143;-74
2021/10/08 02:01:31;;;;;;;6.10;1.90;;;;;;;6.82;42.80;101012.60;27254;1216;3026301;-71
2021/10/08 02:04:04;;;;;;;8.00;1.90;;;;;;;6.81;42.75;101016.82;27272;1216;3026200;-73
2021/10/08 02:06:33;;;;;;;5.30;2.00;;;;;;;6.81;42.72;101017.16;27317;1215;3026606;-74
2021/10/08 02:09:03;;;;;;;6.10;2.20;;;;;;;6.85;42.59;101018.49;27252;1215;3026132;-73
2021/10/08 02:11:34;;;;;;;10.00;2.00;;;;;;;6.92;42.40;101019.56;27243;1215;3070458;-75
2021/10/08 02:14:04;;;;;;;6.90;2.40;;;;;;;6.91;42.47;101019.56;27286;1215;3026104;-70
2021/10/08 02:16:33;;;;;;;6.20;2.20;;;;;;;6.87;42.74;101021.73;27280;1214;3026018;-77
2021/10/08 02:19:09;;;;;;;9.10;2.10;;;;;;;6.89;42.60;101017.16;27261;1216;3069663;-71
2021/10/08 02:21:42;;;;;;;7.20;1.70;;;;;;;6.91;42.50;101018.70;27239;1215;3027802;-71
2021/10/08 02:24:12;;;;;;;6.60;2.10;;;;;;;6.98;42.39;101020.84;27275;1216;3026535;-72
2021/10/08 02:26:44;;;;;;;7.00;1.90;;;;;;;6.96;42.36;101020.67;27258;1216;3028111;-74
2021/10/08 02:29:17;;;;;;;14.50;2.50;;;;;;;6.95;42.54;101023.31;27307;1216;3026140;-75
2021/10/08 02:31:46;;;;;;;4.20;1.90;;;;;;;7.05;42.12;101026.94;27280;1215;3028913;-72
2021/10/08 02:34:15;;;;;;;12.50;2.00;;;;;;;7.05;42.20;101029.22;27310;1215;3028044;-71
2021/10/08 02:36:45;;;;;;;7.90;1.70;;;;;;;7.09;42.33;101032.63;27285;1215;3025967;-69
2021/10/08 02:39:14;;;;;;;7.40;2.00;;;;;;;7.09;42.00;101043.23;27249;1209;3026454;-70
2021/10/08 02:41:44;;;;;;;7.50;1.90;;;;;;;7.07;42.20;101043.27;27278;1216;3052589;-74
2021/10/08 02:44:13;;;;;;;11.30;2.00;;;;;;;7.02;42.25;101042.70;27272;1215;3028273;-72
2021/10/08 02:46:42;;;;;;;11.50;2.40;;;;;;;7.03;42.24;101043.01;27292;1216;3049238;-75
2021/10/08 02:49:11;;;;;;;7.60;2.10;;;;;;;7.03;42.45;101045.11;27385;1215;3027975;-69
2021/10/08 02:51:41;;;;;;;8.30;1.50;;;;;;;7.06;42.45;101040.52;27355;1215;3056546;-68
2021/10/08 02:54:10;;;;;;;10.90;2.10;;;;;;;7.08;42.29;101039.77;27376;1215;3026609;-74
2021/10/08 02:56:40;;;;;;;5.30;1.90;;;;;;;7.04;42.46;101037.93;27370;1215;3026299;-73
2021/10/08 02:59:09;;;;;;;8.40;2.00;;;;;;;7.10;42.43;101040.78;27336;1215;3027770;-72
2021/10/08 03:01:38;;;;;;;10.00;1.90;;;;;;;7.10;42.38;101038.35;27255;1215;3051452;-73
2021/10/08 03:04:07;;;;;;;12.50;2.00;;;;;;;7.11;42.15;101037.97;27271;1215;3027935;-70
2021/10/08 03:06:36;;;;;;;9.80;2.00;;;;;;;7.07;42.31;101038.94;27272;1216;3058008;-69
2021/10/08 03:09:07;;;;;;;9.90;2.20;;;;;;;7.09;42.29;101044.45;27255;1215;3026406;-74
2021/10/08 03:11:36;;;;;;;10.20;2.30;;;;;;;7.10;42.30;101044.79;27291;1215;3026749;-70
2021/10/08 03:14:12;;;;;;;6.30;1.90;;;;;;;7.07;42.74;101047.98;27284;1216;3053350;-71
2021/10/08 03:16:42;;;;;;;4.80;1.90;;;;;;;7.07;42.55;101047.13;27270;1216;3025924;-72
2021/10/08 03:19:11;;;;;;;7.30;2.10;;;;;;;7.05;42.68;101049.94;27297;1216;3026027;-72
2021/10/08 03:21:41;;;;;;;8.70;1.80;;;;;;;7.04;42.56;101051.16;27283;1215;3026893;-69
2021/10/08 03:24:10;;;;;;;5.10;1.70;;;;;;;7.08;42.60;101053.37;27270;1215;3067999;-75
2021/10/08 03:26:39;;;;;;;11.90;2.70;;;;;;;7.11;42.78;101053.48;27247;1215;3026451;-75
2021/10/08 03:29:08;;;;;;;11.80;1.90;;;;;;;7.13;42.51;101053.09;27293;1215;3054268;-73
2021/10/08 03:31:37;;;;;;;5.90;1.90;;;;;;;7.16;42.46;101053.37;27256;1215;3027715;-76
2021/10/08 03:34:06;;;;;;;7.00;2.00;;;;;;;7.20;42.49;101049.11;27254;1215;3054635;-74
2021/10/08 03:36:45;;;;;;;8.20;1.90;;;;;;;7.17;42.53;101049.88;27254;1215;3026252;-72
2021/10/08 03:39:19;;;;;;;6.40;1.90;;;;;;;7.17;42.61;101049.70;27216;1215;3072400;-69
2021/10/08 03:41:49;;;;;;;6.30;1.80;;;;;;;7.14;42.79;101052.20;27289;1215;3047480;-73
2021/10/08 03:44:18;;;;;;;13.40;2.10;;;;;;;7.16;42.70;101054.59;27298;1209;3026091;-74
2021/10/08 03:46:53;;;;;;;4.50;1.90;;;;;;;7.19;42.60;101050.70;27306;1216;3027507;-74
2021/10/08 03:49:23;;;;;;;7.50;2.00;;;;;;;7.17;42.64;101047.96;27269;1215;3058522;-72
2021/10/08 03:51:52;;;;;;;7.30;1.60;;;;;;;7.17;42.72;101044.98;27289;1214;3026536;-72
2021/10/08 03:54:21;;;;;;;11.10;2.00;;;;;;;7.12;42.75;101046.84;27308;1216;3026602;-71
2021/10/08 03:56:50;;;;;;;10.10;1.80;;;;;;;7.08;42.86;101048.66;27288;1215;3027525;-71
2021/10/08 03:59:20;;;;;;;6.70;1.90;;;;;;;7.04;43.10;101045.96;27250;1216;3027944;-70
2021/10/08 04:01:50;;;;;;;8.50;2.60;;;;;;;7.06;43.22;101046.61;27292;1216;3026341;-69
2021/10/08 04:04:19;;;;;;;9.60;2.40;;;;;;;7.14;43.11;101044.73;27211;1215;3027374;-71
2021/10/08 04:06:49;;;;;;;16.00;2.50;;;;;;;7.20;42.87;101046.85;27268;1218;3068075;-71
2021/10/08 04:09:19;;;;;;;5.40;2.00;;;;;;;7.17;42.82;101050.90;27362;1216;3028188;-75
2021/10/08 04:11:51;;;;;;;6.10;2.40;;;;;;;7.17;43.10;101049.88;27251;1215;3027329;-70
2021/10/08 04:14:21;;;;;;;10.00;2.20;;;;;;;7.12;43.14;101050.68;27231;1216;3026087;-72
2021/10/08 04:16:51;;;;;;;22.20;2.60;;;;;;;7.07;43.46;101053.91;27274;1216;3026627;-72
2021/10/08 04:19:21;;;;;;;12.70;2.10;;;;;;;7.13;43.24;101052.93;27289;1214;3028405;-74
2021/10/08 04:21:50;;;;;;;7.70;2.00;;;;;;;7.13;43.15;101055.53;27259;1215;3025871;-67
2021/10/08 04:24:19;;;;;;;5.30;1.80;;;;;;;7.10;43.42;101056.11;27237;1215;3026587;-72
2021/10/08 04:26:48;;;;;;;8.60;2.20;;;;;;;7.11;43.42;101057.33;27265;1215;3049272;-71
2021/10/08 04:29:17;;;;;;;11.00;2.40;;;;;;;7.14;43.45;101061.60;27242;1209;3025581;-71
2021/10/08 04:31:47;;;;;;;8.10;2.00;;;;;;;7.13;43.44;101061.82;27304;1216;3057535;-71
2021/10/08 04:34:16;;;;;;;12.60;2.20;;;;;;;7.14;43.26;101055.51;27253;1215;3026093;-73
2021/10/08 04:36:45;;;;;;;11.60;2.10;;;;;;;7.14;43.48;101059.17;27326;1215;3052930;-73
2021/10/08 04:39:14;;;;;;;14.20;2.00;;;;;;;7.17;43.71;101068.52;27217;1210;3026420;-74
2021/10/08 04:41:44;;;;;;;11.50;2.20;;;;;;;7.19;43.77;101069.69;27312;1216;3050954;-74
2021/10/08 04:44:16;;;;;;;9.50;2.20;;;;;;;7.18;43.92;101075.64;27305;1216;3026045;-73
2021/10/08 04:46:45;;;;;;;9.40;1.90;;;;;;;7.24;43.60;101075.85;27234;1216;3026208;-71
2021/10/08 04:49:15;;;;;;;11.20;2.20;;;;;;;7.26;43.77;101080.71;27240;1215;3053976;-73
2021/10/08 04:51:44;;;;;;;7.60;2.30;;;;;;;7.10;44.28;101076.16;27267;1215;3026424;-72
2021/10/08 04:54:13;;;;;;;12.20;2.20;;;;;;;7.18;43.77;101081.40;27282;1208;3026475;-71
2021/10/08 04:56:42;;;;;;;7.70;2.50;;;;;;;7.20;43.72;101079.09;27234;1215;3054001;-75
2021/10/08 04:59:11;;;;;;;12.30;2.10;;;;;;;7.21;43.77;101085.67;27303;1215;3026935;-73
2021/10/08 05:01:41;;;;;;;13.60;2.40;;;;;;;7.29;43.47;101090.05;27296;1216;3026455;-73
2021/10/08 05:04:10;;;;;;;8.50;1.90;;;;;;;7.25;43.67;101091.02;27269;1215;3026361;-70
2021/10/08 05:06:40;;;;;;;9.40;2.50;;;;;;;7.22;43.78;101090.02;27249;1216;3026421;-72
2021/10/08 05:09:12;;;;;;;17.70;2.40;;;;;;;7.25;43.85;101091.19;27236;1216;3026275;-73
2021/10/08 05:11:42;;;;;;;11.40;2.10;;;;;;;7.25;43.72;101089.80;27262;1214;3026124;-71
2021/10/08 05:14:11;;;;;;;12.70;2.00;;;;;;;7.20;43.49;101094.95;27297;1215;3026452;-71
2021/10/08 05:16:43;;;;;;;11.40;2.00;;;;;;;7.24;43.72;101088.77;27292;1216;3026438;-72
2021/10/08 05:19:12;;;;;;;8.90;2.00;;;;;;;7.31;43.58;101087.55;27287;1216;3026282;-67
2021/10/08 05:21:44;;;;;;;7.80;1.90;;;;;;;7.32;43.59;101094.85;27318;1215;3048236;-72
2021/10/08 05:24:15;;;;;;;8.20;2.00;;;;;;;7.40;43.41;101095.39;27291;1214;3026985;-72
2021/10/08 05:26:44;;;;;;;13.50;2.20;;;;;;;7.39;43.45;101098.37;27252;1216;3027390;-74
2021/10/08 05:29:13;;;;;;;13.20;2.20;;;;;;;7.39;43.44;101102.39;27305;1212;3026551;-72
2021/10/08 05:31:43;;;;;;;13.40;2.30;;;;;;;7.45;43.46;101106.81;27288;1216;3053904;-71
2021/10/08 05:34:12;;;;;;;12.40;2.30;;;;;;;7.49;43.46;101106.70;27270;1215;3026270;-72
2021/10/08 05:36:42;;;;;;;15.40;2.40;;;;;;;7.54;43.30;101109.05;27302;1216;3027683;-71
2021/10/08 05:39:10;;;;;;;12.30;2.00;;;;;;;7.59;43.06;101107.72;27267;1216;3026500;-67
2021/10/08 05:41:40;;;;;;;10.10;2.40;;;;;;;7.66;43.07;101102.85;27329;1215;3050876;-72
2021/10/08 05:44:09;;;;;;;8.60;2.40;;;;;;;7.69;43.10;101108.02;27277;1215;3028127;-71
2021/10/08 05:46:39;;;;;;;10.70;2.40;;;;;;;7.64;43.28;101106.91;27300;1216;3054947;-76
2021/10/08 05:49:08;;;;;;;9.60;2.30;;;;;;;7.66;43.14;101107.20;27265;1216;3026745;-71
2021/10/08 05:51:37;;;;;;;14.00;2.30;;;;;;;7.70;43.22;101104.86;27277;1215;3047963;-71
2021/10/08 05:54:06;;;;;;;12.80;2.70;;;;;;;7.76;43.02;101105.08;27351;1209;3025925;-77
2021/10/08 05:56:35;;;;;;;16.00;2.60;;;;;;;7.82;43.10;101109.99;27229;1216;3068166;-70
2021/10/08 05:59:04;;;;;;;13.40;2.60;;;;;;;7.81;43.08;101114.36;27281;1209;3026605;-73
2021/10/08 06:01:33;;;;;;;13.20;2.70;;;;;;;7.88;42.81;101109.67;27241;1216;3053193;-71
2021/10/08 06:04:06;;;;;;;12.20;2.90;;;;;;;7.90;43.05;101112.95;27252;1215;3026939;-71
2021/10/08 06:06:35;;;;;;;30.90;3.10;;;;;;;7.88;43.04;101111.09;27281;1216;3025983;-75
2021/10/08 06:09:06;;;;;;;12.30;2.60;;;;;;;7.87;43.15;101110.22;27295;1214;3028999;-70
2021/10/08 06:11:35;;;;;;;9.30;2.60;;;;;;;7.95;43.03;101119.48;27286;1216;3030030;-75
2021/10/08 06:14:04;;;;;;;12.90;2.80;;;;;;;8.01;43.27;101117.06;27277;1216;3026947;-71
2021/10/08 06:16:34;;;;;;;10.20;2.90;;;;;;;8.15;43.00;101118.27;27291;1215;3054954;-75
2021/10/08 06:19:03;;;;;;;13.10;2.30;;;;;;;8.23;42.98;101122.30;27293;1214;3027659;-71
2021/10/08 06:21:33;;;;;;;13.70;2.70;;;;;;;8.26;43.24;101119.96;27279;1216;3027254;-76
2021/10/08 06:24:03;;;;;;;10.70;3.20;;;;;;;8.26;43.29;101118.19;27293;1215;3025817;-74
2021/10/08 06:26:32;;;;;;;14.10;3.10;;;;;;;8.28;43.48;101118.14;27228;1218;3026063;-72
2021/10/08 06:29:01;;;;;;;9.70;2.50;;;;;;;8.42;43.28;101112.92;27279;1216;3058246;-70
2021/10/08 06:31:30;;;;;;;20.40;3.50;;;;;;;8.61;43.02;101110.53;27262;1216;3026450;-71
2021/10/08 06:34:00;;;;;;;9.10;2.80;;;;;;;8.80;42.67;101109.86;27259;1216;3051707;-75
2021/10/08 06:36:29;;;;;;;7.30;2.50;;;;;;;8.92;42.55;101110.41;27226;1215;3027992;-69
2021/10/08 06:38:58;;;;;;;17.90;2.80;;;;;;;9.00;42.50;101108.27;27308;1216;3050703;-78
2021/10/08 06:41:27;;;;;;;13.60;3.10;;;;;;;9.02;42.64;101108.55;27296;1215;3028346;-73
2021/10/08 06:44:02;;;;;;;15.50;3.40;;;;;;;9.00;43.03;101102.67;27305;1215;3048493;-74
2021/10/08 06:46:33;;;;;;;15.40;3.90;;;;;;;9.07;43.36;101105.30;27262;1215;3025989;-72
2021/10/08 06:49:02;;;;;;;14.90;3.40;;;;;;;9.09;43.59;101099.29;27307;1216;3028279;-74
2021/10/08 06:51:31;;;;;;;10.00;2.60;;;;;;;9.04;44.15;101099.41;27251;1216;3030267;-71
2021/10/08 06:54:00;;;;;;;12.10;2.40;;;;;;;9.25;43.90;101100.58;27246;1216;3051171;-71
2021/10/08 06:56:30;;;;;;;28.70;3.40;;;;;;;9.19;44.49;101098.45;27280;1214;3026549;-75
2021/10/08 06:59:12;;;;;;;15.40;2.80;;;;;;;9.28;44.51;101099.95;27212;1216;3051453;-73
2021/10/08 07:01:42;;;;;;;21.60;3.00;;;;;;;9.28;44.61;101094.02;27249;1216;3026424;-72
2021/10/08 07:04:13;;;;;;;8.80;2.50;;;;;;;9.38;44.17;101098.80;27222;1216;3026962;-74
2021/10/08 07:06:46;;;;;;;16.70;3.20;;;;;;;9.43;43.99;101093.93;27252;1216;3028277;-75
2021/10/08 07:09:24;;;;;;;16.10;3.00;;;;;;;9.39;43.93;101095.77;27238;1215;3048823;-73
2021/10/08 07:11:53;;;;;;;25.50;3.10;;;;;;;9.44;44.09;101094.27;27280;1216;3026613;-73
2021/10/08 07:14:22;;;;;;;19.40;2.80;;;;;;;9.47;44.07;101092.41;27258;1215;3055185;-68
2021/10/08 07:16:54;;;;;;;19.90;3.20;;;;;;;9.48;44.02;101094.48;27249;1215;3026086;-76
2021/10/08 07:19:23;;;;;;;25.30;3.40;;;;;;;9.57;43.83;101096.30;27246;1215;3052290;-75
2021/10/08 07:21:53;;;;;;;20.00;3.30;;;;;;;9.54;44.30;101095.33;27284;1216;3026142;-72
2021/10/08 07:24:22;;;;;;;14.40;3.10;;;;;;;9.56;44.34;101092.13;27274;1216;3051698;-73
2021/10/08 07:26:51;;;;;;;9.10;2.80;;;;;;;9.68;44.09;101089.32;27292;1216;3028112;-73
2021/10/08 07:29:22;;;;;;;14.40;2.80;;;;;;;9.74;43.73;101088.60;27294;1216;3050613;-77
2021/10/08 07:31:53;;;;;;;23.90;3.30;;;;;;;9.72;43.98;101090.59;27361;1215;3026644;-73
2021/10/08 07:34:21;;;;;;;18.80;3.90;;;;;;;9.82;43.54;101087.48;27316;1215;3026566;-73
2021/10/08 07:36:50;;;;;;;15.30;3.10;;;;;;;9.88;43.38;101088.53;27252;1216;3048987;-69
2021/10/08 07:39:19;;;;;;;20.00;3.20;;;;;;;9.95;43.22;101085.48;27243;1215;3028270;-71
2021/10/08 07:41:49;;;;;;;18.50;3.90;;;;;;;10.13;42.77;101087.88;27249;1216;3071434;-74
2021/10/08 07:44:18;;;;;;;15.20;3.70;;;;;;;10.00;43.14;101092.35;27282;1216;3027035;-76
2021/10/08 07:46:47;;;;;;;14.60;4.60;;;;;;;10.04;42.97;101091.14;27243;1216;3052326;-76
2021/10/08 07:49:15;;;;;;;18.70;3.90;;;;;;;10.09;43.11;101088.37;27246;1216;3025806;-73
2021/10/08 07:51:44;;;;;;;12.70;4.00;;;;;;;10.23;42.81;101087.73;27285;1216;3052951;-71
2021/10/08 07:54:13;;;;;;;15.40;4.00;;;;;;;10.39;42.44;101087.05;27283;1215;3029826;-68
2021/10/08 07:56:42;;;;;;;22.80;4.50;;;;;;;10.43;42.25;101086.90;27269;1216;3048015;-71
2021/10/08 07:59:11;;;;;;;26.10;4.60;;;;;;;10.41;42.62;101081.39;27257;1216;3027408;-69
2021/10/08 08:01:40;;;;;;;16.60;4.40;;;;;;;10.40;42.94;101080.38;27252;1215;3054048;-70
2021/10/08 08:04:11;;;;;;;19.00;4.50;;;;;;;10.45;42.81;101080.89;27250;1214;3028101;-73
2021/10/08 08:06:40;;;;;;;16.00;4.30;;;;;;;10.53;43.05;101080.77;27263;1215;3025946;-74
2021/10/08 08:09:09;;;;;;;19.00;4.60;;;;;;;10.68;42.47;101080.09;27262;1214;3026028;-70
2021/10/08 08:11:38;;;;;;;15.40;4.40;;;;;;;10.67;42.51;101081.69;27261;1215;3051285;-74
2021/10/08 08:14:12;;;;;;;19.60;3.80;;;;;;;10.82;42.59;101088.71;27282;1216;3055212;-69
2021/10/08 08:16:42;;;;;;;16.20;3.70;;;;;;;10.84;42.44;101091.97;27260;1215;3026362;-72
2021/10/08 08:19:13;;;;;;;17.10;3.40;;;;;;;10.84;42.87;101090.40;27234;1216;3026771;-69
2021/10/08 08:21:42;;;;;;;16.50;3.10;;;;;;;10.80;43.00;101095.98;27225;1214;3026085;-72
2021/10/08 08:24:11;;;;;;;12.40;3.10;;;;;;;10.92;42.16;101091.34;27298;1215;3026575;-74
2021/10/08 08:26:41;;;;;;;15.80;3.30;;;;;;;11.04;41.63;101088.61;27254;1215;3070180;-73
2021/10/08 08:29:12;;;;;;;10.70;3.00;;;;;;;11.09;41.92;101090.39;27249;1215;3026664;-69
2021/10/08 08:31:41;;;;;;;18.50;3.60;;;;;;;11.11;41.85;101087.68;27249;1207;3026325;-70
2021/10/08 08:34:10;;;;;;;15.80;3.90;;;;;;;11.19;41.86;101089.84;27226;1214;3067768;-75
2021/10/08 08:36:39;;;;;;;12.50;3.30;;;;;;;11.22;42.08;101081.83;27260;1209;3026288;-69
2021/10/08 08:39:10;;;;;;;17.70;3.60;;;;;;;11.30;42.08;101084.33;27255;1214;3052138;-72
2021/10/08 08:41:38;;;;;;;14.90;3.20;;;;;;;11.43;41.84;101084.02;27237;1214;3025962;-71
2021/10/08 08:44:07;;;;;;;16.70;3.50;;;;;;;11.49;42.24;101081.86;27302;1215;3025706;-71
2021/10/08 08:46:37;;;;;;;13.80;3.70;;;;;;;11.52;42.18;101085.45;27240;1215;3049901;-75
2021/10/08 08:49:06;;;;;;;17.90;3.30;;;;;;;11.46;42.21;101072.83;27197;1216;3025905;-71
2021/10/08 08:51:35;;;;;;;13.90;3.80;;;;;;;11.47;41.98;101070.53;27253;1215;3054965;-73
2021/10/08 08:54:08;;;;;;;16.00;3.60;;;;;;;11.55;41.87;101074.07;27252;1216;3026137;-75
2021/10/08 08:56:37;;;;;;;14.10;3.30;;;;;;;11.69;41.89;101068.25;27235;1214;3048296;-70
2021/10/08 08:59:09;;;;;;;17.60;4.10;;;;;;;11.75;41.57;101066.64;27294;1215;3026028;-70
2021/10/08 09:02:02;;;;;;;16.30;3.80;;;;;;;11.82;41.47;101071.60;27261;1216;3055554;-73
2021/10/08 09:04:32;;;;;;;22.90;3.10;;;;;;;11.82;41.23;101070.02;27212;1216;3051125;-70
2021/10/08 09:07:01;;;;;;;13.30;3.00;;;;;;;11.85;41.19;101072.20;27218;1208;3025989;-72
2021/10/08 09:09:30;;;;;;;11.20;3.20;;;;;;;11.93;41.06;101070.48;27259;1215;3029740;-70
2021/10/08 09:11:59;;;;;;;13.40;3.50;;;;;;;11.92;40.91;101065.21;27220;1216;3051014;-72
2021/10/08 09:14:31;;;;;;;14.50;3.90;;;;;;;11.99;40.69;101067.29;27256;1209;3025986;-70
2021/10/08 09:17:05;;;;;;;12.50;4.00;;;;;;;11.99;40.43;101067.10;27241;1216;3055360;-70
2021/10/08 09:20:07;;;;;;;20.30;5.50;;;;;;;12.04;39.49;101060.70;27224;1215;3050028;-72
2021/10/08 09:22:41;;;;;;;19.40;5.80;;;;;;;12.08;39.06;101058.82;27196;1219;3053007;-69
2021/10/08 09:25:20;;;;;;;23.00;6.50;;;;;;;12.08;38.65;101057.60;27257;1221;3053181;-76
2021/10/08 09:27:51;;;;;;;23.70;5.70;;;;;;;12.08;38.12;101059.50;27211;1218;3071330;-73
2021/10/08 09:30:25;;;;;;;24.90;7.90;;;;;;;12.19;37.55;101063.30;27203;1219;3026433;-74
2021/10/08 09:32:55;;;;;;;27.90;10.50;;;;;;;12.15;37.17;101060.99;27221;1219;3051216;-67
2021/10/08 09:35:25;;;;;;;28.60;9.10;;;;;;;12.20;36.78;101063.05;27193;1219;3026836;-70
2021/10/08 09:38:00;;;;;;;28.80;10.40;;;;;;;12.23;36.89;101060.13;27228;1219;3028133;-72
2021/10/08 09:40:35;;;;;;;27.30;9.20;;;;;;;12.24;37.23;101058.86;27199;1219;3049191;-72
2021/10/08 09:43:06;;;;;;;;;;;;;;;12.32;37.25;101064.00;27203;1218;3052501;-72
2021/10/08 09:45:50;;;;;;;31.20;12.20;;;;;;;12.18;37.57;101055.26;27220;1218;3026251;-68
2021/10/08 09:48:20;;;;;;;35.00;12.40;;;;;;;12.32;37.01;101054.48;27188;1218;3068368;-75
2021/10/08 09:50:56;;;;;;;37.80;13.50;;;;;;;12.36;36.09;101050.26;27213;1219;3026650;-69
2021/10/08 09:53:25;;;;;;;33.90;15.50;;;;;;;12.23;35.26;101050.27;27240;1219;3051315;-73
2021/10/08 09:55:55;;;;;;;38.80;17.10;;;;;;;12.22;34.94;101051.02;27219;1219;3026034;-72
2021/10/08 09:58:24;;;;;;;43.40;18.50;;;;;;;12.21;35.03;101048.27;27227;1219;3047732;-73
2021/10/08 10:01:00;;;;;;;38.80;17.00;;;;;;;12.14;34.99;101048.20;27322;1210;3026878;-69
2021/10/08 10:03:30;;;;;;;37.70;17.20;;;;;;;12.24;34.52;101045.17;27232;1215;3067909;-71
2021/10/08 10:06:00;;;;;;;40.30;18.10;;;;;;;12.18;33.84;101045.41;27245;1216;3026579;-73
2021/10/08 10:08:29;;;;;;;46.20;17.90;;;;;;;12.15;33.63;101046.77;27257;1216;3027079;-70
2021/10/08 10:11:06;;;;;;;46.30;19.20;;;;;;;12.20;33.36;101044.95;27285;1216;3054702;-70
2021/10/08 10:13:38;;;;;;;49.30;19.60;;;;;;;12.27;33.07;101041.31;27328;1215;3026201;-70
2021/10/08 10:16:07;;;;;;;63.50;26.00;;;;;;;12.38;32.33;101034.21;27248;1216;3051667;-70
2021/10/08 10:18:36;;;;;;;63.90;25.30;;;;;;;12.45;31.49;101038.63;27284;1215;3026090;-72
2021/10/08 10:21:05;;;;;;;74.50;30.80;;;;;;;12.58;31.18;101034.19;27245;1216;3049495;-69
2021/10/08 10:23:34;;;;;;;87.80;35.30;;;;;;;12.66;31.10;101031.91;27258;1216;3027618;-69
2021/10/08 10:26:04;;;;;;;93.80;38.70;;;;;;;12.69;30.28;101033.56;27239;1216;3070549;-74
2021/10/08 10:28:33;;;;;;;93.20;38.00;;;;;;;12.76;30.45;101031.81;27242;1216;3026455;-70
2021/10/08 10:31:02;;;;;;;104.30;43.20;;;;;;;12.81;30.56;101032.48;27282;1209;3026314;-70
2021/10/08 10:33:32;;;;;;;93.70;40.70;;;;;;;12.77;30.75;101028.07;27266;1218;3069819;-70
2021/10/08 10:36:06;;;;;;;115.70;45.70;;;;;;;12.86;30.71;101030.15;27261;1215;3025999;-69
2021/10/08 10:38:39;;;;;;;108.30;43.90;;;;;;;12.92;30.28;101026.72;27283;1215;3026163;-70
2021/10/08 10:41:08;;;;;;;101.80;45.50;;;;;;;12.85;30.74;101025.80;27227;1209;3027272;-73
2021/10/08 10:43:44;;;;;;;100.90;42.10;;;;;;;12.88;30.16;101021.29;27261;1216;3026236;-66
2021/10/08 10:54:43;;;;;;;93.10;42.90;;;;;;;12.89;29.71;101016.63;27253;1215;3069930;-72
2021/10/08 10:57:32;;;;;;;86.80;36.70;;;;;;;12.97;29.40;101010.49;27284;1216;3048661;-75
2021/10/08 11:00:20;;;;;;;72.70;34.00;;;;;;;13.01;28.70;101007.30;27298;1215;3052138;-75
2021/10/08 11:03:05;;;;;;;73.40;30.90;;;;;;;13.13;28.12;101006.42;27275;1216;3055181;-70
2021/10/08 11:05:37;;;;;;;65.90;29.20;;;;;;;13.13;27.64;100998.12;27297;1209;3059434;-71
2021/10/08 11:08:15;;;;;;;70.40;28.70;;;;;;;13.18;27.20;101000.38;27249;1215;3026149;-75
2021/10/08 11:10:46;;;;;;;54.90;25.50;;;;;;;13.25;27.54;101002.84;27236;1216;3052913;-72
2021/10/08 11:13:20;;;;;;;68.80;24.30;;;;;;;13.24;27.37;101006.23;27224;1216;3026000;-72
2021/10/08 11:15:53;;;;;;;56.00;23.60;;;;;;;13.32;27.40;101005.53;27234;1216;3026540;-71
2021/10/08 11:18:37;;;;;;;48.40;20.60;;;;;;;13.34;27.65;101007.02;27211;1216;3050701;-76
2021/10/08 11:21:08;;;;;;;40.40;17.30;;;;;;;13.29;27.30;101001.77;27248;1215;3054430;-75
2021/10/08 11:23:37;;;;;;;39.40;15.90;;;;;;;13.33;27.33;101002.98;27275;1215;3026139;-73
2021/10/08 11:26:11;;;;;;;32.50;14.60;;;;;;;13.33;27.04;101003.86;27210;1215;3028307;-72
2021/10/08 11:28:44;;;;;;;23.30;11.60;;;;;;;13.34;27.62;101003.14;27257;1215;3048953;-70
2021/10/08 11:31:14;;;;;;;24.60;10.20;;;;;;;13.26;27.67;100997.90;27309;1214;3026868;-72
2021/10/08 11:33:45;;;;;;;20.60;9.80;;;;;;;13.19;27.57;100999.41;27851;1214;3026246;-72